createdAt,value
2019-04-29T00:00:47.454Z,9.10
2019-04-29T00:03:14.523Z,9.00
2019-04-29T00:05:41.403Z,9.10
2019-04-29T00:08:08.191Z,9.10
2019-04-29T00:10:35.153Z,9.00
2019-04-29T00:13:02.948Z,9.00
2019-04-29T00:15:46.618Z,9.00
2019-04-29T00:18:15.193Z,9.00
2019-04-29T00:20:48.093Z,9.00
2019-04-29T00:23:15.886Z,9.00
2019-04-29T00:25:42.764Z,9.00
2019-04-29T00:28:09.524Z,9.00
2019-04-29T00:30:36.408Z,9.00
2019-04-29T00:33:03.159Z,9.00
2019-04-29T00:35:29.919Z,9.00
2019-04-29T00:38:16.329Z,9.00
2019-04-29T00:41:02.991Z,8.90
2019-04-29T00:43:31.720Z,9.00
2019-04-29T00:45:58.573Z,8.90
2019-04-29T00:48:26.278Z,8.90
2019-04-29T00:50:54.062Z,8.90
2019-04-29T00:53:20.899Z,8.80
2019-04-29T00:55:49.583Z,8.70
2019-04-29T00:58:16.339Z,8.70
2019-04-29T01:00:43.255Z,8.70
2019-04-29T01:03:09.993Z,8.80
2019-04-29T01:05:36.962Z,8.70
2019-04-29T01:08:03.795Z,8.70
2019-04-29T01:10:30.583Z,8.60
2019-04-29T01:12:57.467Z,8.80
2019-04-29T01:15:24.392Z,8.70
2019-04-29T01:17:51.254Z,8.70
2019-04-29T01:20:18.033Z,8.80
2019-04-29T01:22:44.679Z,8.70
2019-04-29T01:25:12.899Z,8.60
2019-04-29T01:27:44.658Z,8.60
2019-04-29T01:30:31.747Z,8.40
2019-04-29T01:32:58.535Z,8.40
2019-04-29T01:35:26.306Z,8.40
2019-04-29T01:37:53.073Z,8.40
2019-04-29T01:40:38.267Z,8.20
2019-04-29T01:43:05.014Z,8.20
2019-04-29T01:45:31.855Z,8.20
2019-04-29T01:47:58.519Z,7.90
2019-04-29T01:50:25.413Z,7.90
2019-04-29T01:52:52.220Z,7.80
2019-04-29T01:55:19.031Z,7.60
2019-04-29T01:57:45.793Z,7.50
2019-04-29T02:00:13.266Z,7.40
2019-04-29T02:02:40.050Z,7.30
2019-04-29T02:05:07.025Z,7.30
2019-04-29T02:07:33.780Z,7.70
2019-04-29T02:10:02.477Z,7.50
2019-04-29T02:12:30.312Z,7.30
2019-04-29T02:14:56.981Z,7.30
2019-04-29T02:17:23.946Z,7.20
2019-04-29T02:19:50.601Z,7.10
2019-04-29T02:22:25.134Z,7.00
2019-04-29T02:24:53.626Z,6.90
2019-04-29T02:27:20.372Z,6.90
2019-04-29T02:29:47.030Z,6.70
2019-04-29T02:32:13.819Z,6.70
2019-04-29T02:34:40.578Z,6.80
2019-04-29T02:37:09.125Z,6.90
2019-04-29T02:39:37.825Z,6.70
2019-04-29T02:42:22.910Z,6.60
2019-04-29T02:44:50.689Z,6.50
2019-04-29T02:47:17.533Z,6.40
2019-04-29T02:49:44.437Z,6.20
2019-04-29T02:52:11.151Z,6.30
2019-04-29T02:54:37.998Z,6.30
2019-04-29T02:57:09.355Z,6.30
2019-04-29T02:59:38.023Z,6.20
2019-04-29T03:02:21.446Z,6.10
2019-04-29T03:04:50.040Z,6.00
2019-04-29T03:07:16.899Z,6.00
2019-04-29T03:09:46.415Z,5.80
2019-04-29T03:12:14.138Z,5.80
2019-04-29T03:14:41.010Z,5.80
2019-04-29T03:17:08.361Z,5.60
2019-04-29T03:19:37.049Z,5.40
2019-04-29T03:22:04.855Z,5.40
2019-04-29T03:24:31.613Z,5.50
2019-04-29T03:26:58.386Z,5.50
2019-04-29T03:29:25.249Z,5.50
2019-04-29T03:31:52.596Z,5.40
2019-04-29T03:34:19.245Z,5.30
2019-04-29T03:36:46.016Z,5.30
2019-04-29T03:39:12.774Z,5.40
2019-04-29T03:41:39.554Z,5.20
2019-04-29T03:44:06.191Z,5.10
2019-04-29T03:46:34.070Z,5.20
2019-04-29T03:49:00.829Z,5.10
2019-04-29T03:51:27.479Z,5.20
2019-04-29T03:53:54.186Z,5.10
2019-04-29T03:56:21.073Z,5.30
2019-04-29T03:58:47.876Z,5.20
2019-04-29T04:01:25.130Z,5.10
2019-04-29T04:03:54.823Z,5.10
2019-04-29T04:06:23.517Z,5.00
2019-04-29T04:09:05.627Z,5.10
2019-04-29T04:11:20.658Z,5.30
2019-04-29T04:13:47.426Z,5.20
2019-04-29T04:16:16.101Z,5.10
2019-04-29T04:18:42.975Z,5.00
2019-04-29T04:21:09.641Z,5.00
2019-04-29T04:23:36.295Z,5.10
2019-04-29T04:26:03.198Z,5.10
2019-04-29T04:28:29.961Z,5.10
2019-04-29T04:30:56.715Z,4.90
2019-04-29T04:33:23.476Z,4.90
2019-04-29T04:35:50.174Z,5.10
2019-04-29T04:38:16.959Z,5.20
2019-04-29T04:40:48.403Z,5.10
2019-04-29T04:43:15.222Z,5.20
2019-04-29T04:45:41.930Z,5.20
2019-04-29T04:48:08.717Z,5.10
2019-04-29T04:50:35.393Z,5.10
2019-04-29T04:53:02.134Z,5.20
2019-04-29T04:55:30.798Z,5.40
2019-04-29T04:57:57.618Z,5.50
2019-04-29T05:00:26.393Z,5.70
2019-04-29T05:02:53.007Z,5.90
2019-04-29T05:05:19.881Z,6.30
2019-04-29T05:07:46.636Z,6.50
2019-04-29T05:10:13.396Z,6.80
2019-04-29T05:12:40.190Z,7.00
2019-04-29T05:15:07.074Z,7.20
2019-04-29T05:17:33.843Z,7.20
2019-04-29T05:20:00.549Z,7.40
2019-04-29T05:22:27.284Z,7.40
2019-04-29T05:24:53.873Z,7.50
2019-04-29T05:27:20.639Z,7.60
2019-04-29T05:29:47.690Z,7.70
2019-04-29T05:32:14.555Z,8.20
2019-04-29T05:34:46.370Z,8.40
2019-04-29T05:37:22.480Z,8.50
2019-04-29T05:39:49.154Z,8.70
2019-04-29T05:42:17.266Z,9.00
2019-04-29T05:44:46.474Z,9.30
2019-04-29T05:47:18.141Z,9.40
2019-04-29T05:49:49.549Z,9.60
2019-04-29T05:52:39.573Z,9.70
2019-04-29T05:55:05.098Z,9.90
2019-04-29T05:57:31.753Z,9.90
2019-04-29T05:59:58.500Z,9.90
2019-04-29T06:02:33.091Z,10.10
2019-04-29T06:04:54.006Z,10.20
2019-04-29T06:07:21.571Z,10.20
2019-04-29T06:09:49.298Z,10.30
2019-04-29T06:12:20.124Z,10.40
2019-04-29T06:14:46.900Z,10.50
2019-04-29T06:17:14.837Z,10.50
2019-04-29T06:19:41.533Z,10.60
2019-04-29T06:22:08.357Z,10.60
2019-04-29T06:24:36.901Z,10.70
2019-04-29T06:27:03.660Z,10.70
2019-04-29T06:29:30.415Z,10.80
2019-04-29T06:31:57.259Z,10.90
2019-04-29T06:34:24.007Z,10.90
2019-04-29T06:36:50.856Z,11.00
2019-04-29T06:39:17.651Z,11.10
2019-04-29T06:41:45.409Z,11.20
2019-04-29T06:44:16.718Z,11.30
2019-04-29T06:46:41.458Z,11.40
2019-04-29T06:49:10.621Z,11.50
2019-04-29T06:51:36.584Z,11.50
2019-04-29T06:54:03.370Z,11.60
2019-04-29T06:56:30.055Z,11.70
2019-04-29T06:58:56.733Z,11.80
2019-04-29T07:01:23.642Z,11.80
2019-04-29T07:03:50.679Z,11.80
2019-04-29T07:06:17.453Z,11.80
2019-04-29T07:08:44.105Z,11.80
2019-04-29T07:11:10.936Z,11.90
2019-04-29T07:13:37.665Z,12.00
2019-04-29T07:16:04.348Z,12.10
2019-04-29T07:18:32.740Z,12.20
2019-04-29T07:20:59.511Z,12.10
2019-04-29T07:23:26.264Z,12.00
2019-04-29T07:25:53.415Z,12.00
2019-04-29T07:28:20.110Z,12.00
2019-04-29T07:31:00.919Z,11.90
2019-04-29T07:33:22.107Z,11.90
2019-04-29T07:35:47.902Z,12.00
2019-04-29T07:38:12.385Z,12.10
2019-04-29T07:40:43.425Z,12.10
2019-04-29T07:43:09.273Z,12.00
2019-04-29T07:45:44.352Z,12.00
2019-04-29T07:48:07.730Z,12.00
2019-04-29T07:50:34.617Z,12.10
2019-04-29T07:53:01.389Z,12.00
2019-04-29T07:55:30.930Z,12.00
2019-04-29T07:57:56.707Z,12.00
2019-04-29T08:00:33.996Z,12.10
2019-04-29T08:03:02.052Z,12.10
2019-04-29T08:05:29.306Z,12.30
2019-04-29T08:07:58.634Z,12.20
2019-04-29T08:10:28.548Z,12.20
2019-04-29T08:12:55.263Z,12.10
2019-04-29T08:15:22.068Z,11.90
2019-04-29T08:17:51.348Z,11.90
2019-04-29T08:20:17.281Z,11.90
2019-04-29T08:22:44.081Z,11.90
2019-04-29T08:25:10.934Z,12.00
2019-04-29T08:27:40.551Z,12.00
2019-04-29T08:30:06.672Z,12.00
2019-04-29T08:32:36.437Z,12.20
2019-04-29T08:35:04.837Z,12.20
2019-04-29T08:37:31.491Z,12.30
2019-04-29T08:40:14.910Z,12.40
2019-04-29T08:42:28.818Z,12.40
2019-04-29T08:45:15.398Z,12.30
2019-04-29T08:47:49.715Z,12.20
2019-04-29T08:50:16.495Z,12.20
2019-04-29T08:52:43.365Z,12.10
2019-04-29T08:55:10.340Z,12.20
2019-04-29T08:57:37.552Z,12.00
2019-04-29T09:00:06.587Z,12.10
2019-04-29T09:02:35.419Z,12.10
2019-04-29T09:05:06.802Z,12.10
2019-04-29T09:07:32.227Z,12.10
2019-04-29T09:10:01.845Z,12.10
2019-04-29T09:12:29.299Z,12.10
2019-04-29T09:14:56.499Z,12.20
2019-04-29T09:17:23.178Z,12.20
2019-04-29T09:19:50.967Z,12.30
2019-04-29T09:22:19.650Z,12.40
2019-04-29T09:25:04.704Z,12.40
2019-04-29T09:27:31.659Z,12.50
2019-04-29T09:29:58.855Z,12.50
2019-04-29T09:32:27.099Z,12.50
2019-04-29T09:34:55.550Z,12.60
2019-04-29T09:37:22.939Z,12.60
2019-04-29T09:39:52.817Z,12.60
2019-04-29T09:42:38.659Z,12.60
2019-04-29T09:45:14.705Z,12.50
2019-04-29T09:47:39.475Z,12.70
2019-04-29T09:50:06.845Z,12.70
2019-04-29T09:52:33.605Z,12.70
2019-04-29T09:55:04.156Z,12.90
2019-04-29T09:57:29.309Z,12.90
2019-04-29T10:00:05.238Z,12.80
2019-04-29T10:02:39.116Z,12.90
2019-04-29T10:05:11.119Z,12.80
2019-04-29T10:07:39.006Z,12.70
2019-04-29T10:10:06.991Z,12.70
2019-04-29T10:12:34.601Z,12.70
2019-04-29T10:15:01.493Z,12.70
2019-04-29T10:17:30.164Z,12.70
2019-04-29T10:20:01.619Z,12.60
2019-04-29T10:22:28.897Z,12.70
2019-04-29T10:24:55.747Z,12.60
2019-04-29T10:27:22.648Z,12.90
2019-04-29T10:29:55.368Z,12.70
2019-04-29T10:32:20.461Z,12.70
2019-04-29T10:34:47.240Z,12.60
2019-04-29T10:37:14.013Z,12.60
2019-04-29T10:39:42.677Z,12.70
2019-04-29T10:42:11.387Z,12.70
2019-04-29T10:44:56.568Z,12.60
2019-04-29T10:47:41.943Z,12.60
2019-04-29T10:50:15.519Z,12.70
2019-04-29T10:52:43.574Z,12.80
2019-04-29T10:55:12.251Z,12.80
2019-04-29T10:57:39.635Z,12.90
2019-04-29T11:00:17.047Z,12.80
2019-04-29T11:02:44.843Z,12.80
2019-04-29T11:05:28.381Z,12.80
2019-04-29T11:07:58.123Z,12.90
2019-04-29T11:10:27.734Z,12.90
2019-04-29T11:12:55.107Z,13.00
2019-04-29T11:15:24.502Z,13.00
2019-04-29T11:17:58.752Z,13.00
2019-04-29T11:20:21.613Z,12.90
2019-04-29T11:22:53.143Z,12.90
2019-04-29T11:25:36.817Z,12.90
2019-04-29T11:28:04.197Z,12.90
2019-04-29T11:30:34.898Z,12.90
2019-04-29T11:33:06.146Z,12.80
2019-04-29T11:35:53.016Z,12.90
2019-04-29T11:38:20.788Z,13.00
2019-04-29T11:40:50.451Z,13.00
2019-04-29T11:43:19.098Z,13.10
2019-04-29T11:45:46.127Z,13.10
2019-04-29T11:48:12.970Z,13.10
2019-04-29T11:50:45.173Z,13.00
2019-04-29T11:53:11.927Z,12.80
2019-04-29T11:55:38.659Z,12.80
2019-04-29T11:58:07.333Z,12.80
2019-04-29T12:00:38.519Z,12.80
2019-04-29T12:03:07.289Z,12.80
2019-04-29T12:05:35.943Z,12.80
2019-04-29T12:08:06.988Z,12.80
2019-04-29T12:10:32.160Z,12.90
2019-04-29T12:13:00.826Z,12.90
2019-04-29T12:15:32.506Z,12.90
2019-04-29T12:18:01.232Z,12.80
2019-04-29T12:20:30.049Z,12.80
2019-04-29T12:22:56.783Z,12.90
2019-04-29T12:25:27.469Z,12.80
2019-04-29T12:28:01.735Z,12.90
2019-04-29T12:30:24.599Z,12.90
2019-04-29T12:33:01.254Z,12.80
2019-04-29T12:35:51.655Z,12.90
2019-04-29T12:38:39.388Z,12.90
2019-04-29T12:41:02.748Z,13.00
2019-04-29T12:43:53.585Z,13.00
2019-04-29T12:46:25.893Z,13.10
2019-04-29T12:48:52.965Z,13.00
2019-04-29T12:51:19.859Z,13.00
2019-04-29T12:53:48.633Z,13.00
2019-04-29T12:56:17.648Z,13.10
2019-04-29T12:58:50.265Z,13.20
2019-04-29T13:01:49.474Z,13.10
2019-04-29T13:03:57.561Z,13.30
2019-04-29T13:06:42.842Z,13.50
2019-04-29T13:09:17.940Z,13.30
2019-04-29T13:11:48.731Z,13.30
2019-04-29T13:14:11.515Z,13.30
2019-04-29T13:16:46.203Z,13.40
2019-04-29T13:19:20.118Z,13.40
2019-04-29T13:21:43.403Z,13.50
2019-04-29T13:24:22.911Z,13.60
2019-04-29T13:26:42.416Z,13.60
2019-04-29T13:29:07.363Z,13.60
2019-04-29T13:31:38.367Z,13.60
2019-04-29T13:34:22.433Z,13.50
2019-04-29T13:36:33.401Z,13.50
2019-04-29T13:39:00.225Z,13.50
2019-04-29T13:41:26.931Z,13.50
2019-04-29T13:44:04.114Z,13.60
2019-04-29T13:46:26.016Z,13.50
2019-04-29T13:49:13.822Z,13.50
2019-04-29T13:51:44.455Z,13.40
2019-04-29T13:54:11.286Z,13.40
2019-04-29T13:56:55.526Z,13.40
2019-04-29T13:59:12.554Z,13.30
2019-04-29T14:01:59.968Z,13.30
2019-04-29T14:04:24.907Z,13.30
2019-04-29T14:06:56.921Z,13.30
2019-04-29T14:09:18.842Z,13.40
2019-04-29T14:11:45.639Z,13.50
2019-04-29T14:14:12.486Z,13.60
2019-04-29T14:16:43.136Z,13.60
2019-04-29T14:19:08.759Z,13.60
2019-04-29T14:21:35.683Z,13.50
2019-04-29T14:24:02.484Z,13.60
2019-04-29T14:26:29.589Z,13.60
2019-04-29T14:28:56.422Z,13.60
2019-04-29T14:31:24.976Z,13.60
2019-04-29T14:34:08.663Z,13.60
2019-04-29T14:36:35.429Z,13.60
2019-04-29T14:39:04.199Z,13.50
2019-04-29T14:41:34.696Z,13.50
2019-04-29T14:44:26.454Z,13.40
2019-04-29T14:47:05.243Z,13.40
2019-04-29T14:49:40.893Z,13.50
2019-04-29T14:52:08.303Z,13.60
2019-04-29T14:54:36.819Z,13.50
2019-04-29T14:57:04.918Z,13.60
2019-04-29T14:59:31.766Z,13.60
2019-04-29T15:02:03.307Z,13.60
2019-04-29T15:04:32.041Z,13.50
2019-04-29T15:06:58.904Z,13.50
2019-04-29T15:09:25.637Z,13.40
2019-04-29T15:12:12.386Z,13.50
2019-04-29T15:14:41.420Z,13.40
2019-04-29T15:17:10.063Z,13.40
2019-04-29T15:19:48.793Z,13.40
2019-04-29T15:22:15.025Z,13.30
2019-04-29T15:24:41.753Z,13.40
2019-04-29T15:27:08.521Z,13.40
2019-04-29T15:29:35.386Z,13.40
2019-04-29T15:32:02.065Z,13.30
2019-04-29T15:34:29.069Z,13.30
2019-04-29T15:36:55.920Z,13.30
2019-04-29T15:39:25.251Z,13.30
2019-04-29T15:41:54.035Z,13.30
2019-04-29T15:44:22.494Z,13.30
2019-04-29T15:46:48.504Z,13.20
2019-04-29T15:49:15.455Z,13.10
2019-04-29T15:51:44.146Z,13.10
2019-04-29T15:54:14.418Z,13.00
2019-04-29T15:56:40.024Z,13.10
2019-04-29T15:59:08.884Z,13.10
2019-04-29T16:01:35.606Z,13.00
2019-04-29T16:04:04.191Z,12.90
2019-04-29T16:06:33.955Z,12.90
2019-04-29T16:09:06.223Z,12.90
2019-04-29T16:11:39.192Z,12.90
2019-04-29T16:14:21.051Z,12.90
2019-04-29T16:16:47.895Z,12.90
2019-04-29T16:19:15.541Z,12.90
2019-04-29T16:21:42.397Z,12.80
2019-04-29T16:24:26.003Z,12.80
2019-04-29T16:26:37.629Z,12.80
2019-04-29T16:29:12.437Z,12.80
2019-04-29T16:31:33.130Z,12.80
2019-04-29T16:33:59.976Z,12.70
2019-04-29T16:36:26.795Z,12.70
2019-04-29T16:38:58.893Z,12.70
2019-04-29T16:41:36.310Z,12.60
2019-04-29T16:44:05.015Z,12.70
2019-04-29T16:46:37.472Z,12.60
2019-04-29T16:49:02.546Z,12.60
2019-04-29T16:51:29.262Z,12.60
2019-04-29T16:53:56.017Z,12.60
2019-04-29T16:56:22.952Z,12.50
2019-04-29T16:58:49.731Z,12.50
2019-04-29T17:01:16.695Z,12.50
2019-04-29T17:03:43.507Z,12.40
2019-04-29T17:06:10.555Z,12.40
2019-04-29T17:09:03.337Z,12.40
2019-04-29T17:11:40.308Z,12.30
2019-04-29T17:14:10.088Z,12.40
2019-04-29T17:16:36.198Z,12.30
2019-04-29T17:19:03.955Z,12.30
2019-04-29T17:21:31.846Z,12.20
2019-04-29T17:23:59.048Z,12.20
2019-04-29T17:26:30.251Z,12.30
2019-04-29T17:29:11.594Z,12.20
2019-04-29T17:31:56.125Z,12.10
2019-04-29T17:34:55.814Z,12.10
2019-04-29T17:36:55.584Z,12.10
2019-04-29T17:39:22.631Z,12.10
2019-04-29T17:41:49.400Z,12.10
2019-04-29T17:44:24.017Z,12.10
2019-04-29T17:47:11.567Z,12.10
2019-04-29T17:49:50.707Z,12.10
2019-04-29T17:52:21.970Z,12.00
2019-04-29T17:54:54.976Z,12.00
2019-04-29T17:57:31.625Z,12.00
2019-04-29T18:00:09.324Z,12.00
2019-04-29T18:02:45.484Z,12.00
2019-04-29T18:05:14.118Z,11.90
2019-04-29T18:08:00.496Z,11.90
2019-04-29T18:10:37.646Z,11.90
2019-04-29T18:13:04.865Z,11.90
2019-04-29T18:15:42.402Z,11.90
2019-04-29T18:18:05.371Z,11.90
2019-04-29T18:20:50.018Z,11.80
2019-04-29T18:23:19.219Z,11.90
2019-04-29T18:25:50.792Z,11.80
2019-04-29T18:28:18.563Z,11.70
2019-04-29T18:30:45.568Z,11.70
2019-04-29T18:33:12.617Z,11.70
2019-04-29T18:35:39.383Z,11.70
2019-04-29T18:38:07.545Z,11.80
2019-04-29T18:40:41.461Z,11.70
2019-04-29T18:43:06.132Z,11.70
2019-04-29T18:45:36.283Z,11.70
2019-04-29T18:48:01.548Z,11.70
2019-04-29T18:50:29.674Z,11.70
2019-04-29T18:52:57.019Z,11.70
2019-04-29T18:55:23.872Z,11.70
2019-04-29T18:57:50.844Z,11.70
2019-04-29T19:00:20.061Z,11.70
2019-04-29T19:02:52.450Z,11.70
2019-04-29T19:05:35.556Z,11.70
2019-04-29T19:08:12.213Z,11.70
2019-04-29T19:10:34.396Z,11.70
2019-04-29T19:13:00.470Z,11.70
2019-04-29T19:15:28.381Z,11.70
2019-04-29T19:18:01.347Z,11.70
2019-04-29T19:20:25.128Z,11.70
2019-04-29T19:22:59.696Z,11.60
2019-04-29T19:25:20.648Z,11.60
2019-04-29T19:27:47.510Z,11.60
2019-04-29T19:30:20.801Z,11.60
2019-04-29T19:32:44.984Z,11.60
2019-04-29T19:35:11.406Z,11.60
2019-04-29T19:37:40.014Z,11.60
2019-04-29T19:40:08.300Z,11.50
2019-04-29T19:42:35.932Z,11.50
2019-04-29T19:45:06.300Z,11.60
2019-04-29T19:47:32.891Z,11.50
2019-04-29T19:50:01.613Z,11.50
2019-04-29T19:52:31.714Z,11.50
2019-04-29T19:54:57.308Z,11.50
2019-04-29T19:57:25.685Z,11.50
2019-04-29T19:59:54.254Z,11.40
2019-04-29T20:02:21.343Z,11.30
2019-04-29T20:04:58.974Z,11.30
2019-04-29T20:07:26.801Z,11.30
2019-04-29T20:09:59.719Z,11.30
2019-04-29T20:12:21.934Z,11.30
2019-04-29T20:14:49.226Z,11.30
2019-04-29T20:17:23.963Z,11.30
2019-04-29T20:20:00.112Z,11.30
2019-04-29T20:22:25.228Z,11.30
2019-04-29T20:24:52.226Z,11.30
2019-04-29T20:27:20.408Z,11.30
2019-04-29T20:29:47.574Z,11.30
2019-04-29T20:32:16.237Z,11.30
2019-04-29T20:34:42.918Z,11.30
2019-04-29T20:37:10.712Z,11.30
2019-04-29T20:39:38.478Z,11.30
2019-04-29T20:42:10.062Z,11.30
2019-04-29T20:44:36.536Z,11.30
2019-04-29T20:47:16.494Z,11.30
2019-04-29T20:49:36.122Z,11.30
2019-04-29T20:52:01.807Z,11.30
2019-04-29T20:54:35.276Z,11.30
2019-04-29T20:57:05.412Z,11.30
2019-04-29T20:59:31.139Z,11.30
2019-04-29T21:02:11.250Z,11.30
2019-04-29T21:04:34.032Z,11.30
2019-04-29T21:07:02.601Z,11.30
2019-04-29T21:09:30.186Z,11.30
2019-04-29T21:12:20.302Z,11.30
2019-04-29T21:14:46.967Z,11.30
2019-04-29T21:17:26.144Z,11.40
2019-04-29T21:19:42.355Z,11.40
2019-04-29T21:22:12.956Z,11.40
2019-04-29T21:24:38.723Z,11.40
2019-04-29T21:27:05.575Z,11.40
2019-04-29T21:29:33.359Z,11.40
2019-04-29T21:32:01.837Z,11.40
2019-04-29T21:34:34.576Z,11.40
2019-04-29T21:37:10.249Z,11.40
2019-04-29T21:39:38.954Z,11.40
2019-04-29T21:42:22.887Z,11.40
2019-04-29T21:44:49.738Z,11.40
2019-04-29T21:47:16.911Z,11.40
2019-04-29T21:49:45.676Z,11.40
2019-04-29T21:52:12.552Z,11.40
2019-04-29T21:54:39.318Z,11.40
2019-04-29T21:57:10.695Z,11.40
2019-04-29T21:59:37.374Z,11.30
2019-04-29T22:02:06.682Z,11.30
2019-04-29T22:04:37.493Z,11.30
2019-04-29T22:07:04.858Z,11.20
2019-04-29T22:09:36.057Z,11.30
2019-04-29T22:12:00.660Z,11.30
2019-04-29T22:14:27.450Z,11.30
2019-04-29T22:16:57.105Z,11.30
2019-04-29T22:19:26.757Z,11.30
2019-04-29T22:21:52.774Z,11.30
2019-04-29T22:24:21.860Z,11.20
2019-04-29T22:26:48.352Z,11.20
2019-04-29T22:29:15.009Z,11.20
2019-04-29T22:31:41.872Z,11.30
2019-04-29T22:34:13.967Z,11.30
2019-04-29T22:36:38.921Z,11.20
2019-04-29T22:39:06.153Z,11.20
2019-04-29T22:41:54.209Z,11.20
2019-04-29T22:44:21.868Z,11.20
2019-04-29T22:46:49.740Z,11.20
2019-04-29T22:49:19.770Z,11.10
2019-04-29T22:51:49.792Z,11.10
2019-04-29T22:54:17.565Z,11.10
2019-04-29T22:56:45.612Z,11.10
2019-04-29T22:59:14.667Z,11.10
2019-04-29T23:01:42.235Z,11.10
2019-04-29T23:04:13.629Z,11.10
2019-04-29T23:06:39.796Z,11.00
2019-04-29T23:09:07.693Z,11.00
2019-04-29T23:11:39.440Z,11.00
2019-04-29T23:17:54.473Z,10.80
2019-04-29T23:20:35.293Z,10.90
2019-04-29T23:23:05.578Z,10.90
2019-04-29T23:25:35.448Z,10.90
2019-04-29T23:28:03.469Z,11.00
2019-04-29T23:30:30.313Z,11.00
2019-04-29T23:32:56.959Z,11.00
2019-04-29T23:35:25.093Z,11.00
2019-04-29T23:37:57.466Z,11.00
2019-04-29T23:40:21.471Z,11.10
2019-04-29T23:42:49.225Z,11.10
2019-04-29T23:45:21.073Z,11.10
2019-04-29T23:47:48.789Z,11.10
2019-04-29T23:50:14.019Z,11.10
2019-04-29T23:52:42.893Z,11.10
2019-04-29T23:55:09.872Z,11.10
2019-04-29T23:57:41.127Z,11.10
